Flight APNVIP5

  • Submitted By: Krzysztof H. Blaszkow
  • Departure Airport: Dublin (EIDW)
  • Arrival Airport: Cork Airport (EICK)
  • Aircraft: BE58 (EJ-IAWH)
  • Flight Time: 01.34.04
  • Date Submitted: 07/08/2017
  • Route: ARRAY
  • Status: Accepted
Flight Details
Gross Revenue:
(5 load / € 450.00 per unit
€ 2,250.00
Fuel Cost:
(67.5853 fuel used @ 0.45 / unit)
€ 30.41

Additional Log Information:

View Log

[22:00] - Carenado BARON B58 GOLD GREEN
[22:00] - Flight APNVIP5 is ready to depart EIDW with a final destination of EICK.
[22:00] - Parking Brake Applied
[22:00] - Beacon Light ON
[22:00] - Wing Lights ON
[22:00] - Boarding
[22:00] - ADF1 - 284.0
[22:00] - ADF2 - 240.0
[22:00] - NAV1 - 111.35
[22:00] - NAV2 - 110.60
[22:00] - COM1 - 118.60
[22:00] - COM2 - 127.80
[22:00] - Transponder - 2000
[22:09] - COM1 - 124.52
[22:12] - COM1 - 121.10
[22:20] - Engine 1 Started
[22:20] - Engine 2 Started
[22:20] - Parking Brake Released
[22:20] - Pushing Back from the gate
[22:20] - Taxi Lights ON 3AGL
[22:27] - Transponder - 6646
[22:27] - Flaps to position 1
[22:28] - Taxiing to Runway
[22:30] - Landing Lights ON 3AGL
[22:30] - Taxi Lights OFF 3AGL
[22:30] - Strobe Lights ON 3AGL
[22:34] - Taking Off with 5 passengers on board
[22:35] - Take off at 99kts, with a pitch of 3deg and 338lbs of fuel on board
[22:35] - Wind Heading 278 | Wind Speed 7kts | Temperature 15 deg C
[22:35] - METAR Departure: EIDW 072100Z 30005KT 290V350 9999 FEW030 SCT200 12/10 Q1018 NOSIG

[22:35] - Gear up at 82AGL
[22:35] - Flaps to position 0 at 387ft and 114kts
[22:35] - Climbing to TOC
[22:35] - COM1 - 131.15
[22:37] - AutoPilot Engaged at 4065AGL
[22:39] - Landing Lights OFF 6630AGL
[22:46] - TOC reached
[22:46] - Cruise started
[22:46] - Instrument Lights ON 11673AGL
[22:47] - COM1 - 122.80
[22:50] - NAV1 - 114.60
[22:50] - NAV1 - 109.90
[22:50] - NAV1 - 114.60
[23:05] - TOD reached
[23:05] - Descending to destination
[23:06] - Landing Lights ON 9915AGL
[23:15] - NAV1 - 109.90
[23:15] - NAV1 - 114.60
[23:15] - COM1 - 122.80
[23:21] - NAV1 - 109.90
[23:22] - Landing Shortly
[23:25] - Flaps to position 1 at 3045ft and 146kts
[23:25] - Gear down at 3012AGL
[23:26] - AutoPilot Disengaged at 2559AGL
[23:28] - Flaps to position 2 at 1585ft and 108kts
[23:31] - Landed at -43fpm. With 195lbs of fuel onboard and a pitch angle of 2deg.
[23:31] - Wind Heading 296 | Wind Speed 3kts | Temperature 16 deg C
[23:31] - METAR Arrival: EICK 072200Z 34006KT 9999 FEW023 SCT036 16/13 Q1020 NOSIG

[23:31] - Flaps to position 1
[23:31] - Flaps to position 0
[23:31] - Taxiing to Gate
[23:31] - Taxi Lights ON 0AGL
[23:31] - Landing Lights OFF 0AGL
[23:31] - Strobe Lights OFF 0AGL
[23:33] - Parking Brake Applied
[23:33] - Arrived safely at EICK. We hope you enjoyed your flight!
[23:33] - Taxi Lights OFF 0AGL
[23:33] - Engine 1 Stopped
[23:33] - Engine 2 Stopped
[23:34] - Carenado BARON B58 GOLD GREEN
[23:34] - MaxSim Rate: 1x
[23:34] - SiouxAcars ver: 1.0.1.2

Route Map